sensor_id;sensor_type;location;lat;lon;timestamp;temperature;humidity
5210;DHT22;2624;48.048;11.706;2024-03-25T00:02:50;3.10;99.90
5210;DHT22;2624;48.048;11.706;2024-03-25T00:07:53;3.10;99.90
5210;DHT22;2624;48.048;11.706;2024-03-25T00:12:55;3.20;99.90
5210;DHT22;2624;48.048;11.706;2024-03-25T00:17:57;3.10;99.90
5210;DHT22;2624;48.048;11.706;2024-03-25T00:23:01;3.00;99.90
5210;DHT22;2624;48.048;11.706;2024-03-25T00:28:03;3.00;99.90
5210;DHT22;2624;48.048;11.706;2024-03-25T00:33:05;2.90;99.90
5210;DHT22;2624;48.048;11.706;2024-03-25T00:38:08;3.00;99.90
5210;DHT22;2624;48.048;11.706;2024-03-25T00:43:10;3.00;99.90
5210;DHT22;2624;48.048;11.706;2024-03-25T00:48:12;3.00;99.90
5210;DHT22;2624;48.048;11.706;2024-03-25T00:53:16;3.00;99.90
5210;DHT22;2624;48.048;11.706;2024-03-25T00:58:18;3.00;99.90
5210;DHT22;2624;48.048;11.706;2024-03-25T01:03:20;3.00;99.90
5210;DHT22;2624;48.048;11.706;2024-03-25T01:08:24;3.00;99.90
5210;DHT22;2624;48.048;11.706;2024-03-25T01:13:26;3.00;99.90
5210;DHT22;2624;48.048;11.706;2024-03-25T01:18:28;3.00;99.90
5210;DHT22;2624;48.048;11.706;2024-03-25T01:23:31;3.00;99.90
5210;DHT22;2624;48.048;11.706;2024-03-25T01:28:33;3.00;99.90
5210;DHT22;2624;48.048;11.706;2024-03-25T01:33:35;2.90;99.90
5210;DHT22;2624;48.048;11.706;2024-03-25T01:38:39;2.90;99.90
5210;DHT22;2624;48.048;11.706;2024-03-25T01:43:41;3.00;99.90
5210;DHT22;2624;48.048;11.706;2024-03-25T01:48:43;2.90;99.90
5210;DHT22;2624;48.048;11.706;2024-03-25T01:53:48;2.80;99.90
5210;DHT22;2624;48.048;11.706;2024-03-25T01:58:50;2.80;99.90
5210;DHT22;2624;48.048;11.706;2024-03-25T02:03:53;2.70;99.90
5210;DHT22;2624;48.048;11.706;2024-03-25T02:08:57;2.80;99.90
5210;DHT22;2624;48.048;11.706;2024-03-25T02:13:59;2.90;99.90
5210;DHT22;2624;48.048;11.706;2024-03-25T02:19:02;2.90;99.90
5210;DHT22;2624;48.048;11.706;2024-03-25T02:24:08;2.80;99.90
5210;DHT22;2624;48.048;11.706;2024-03-25T02:29:12;2.80;99.90
5210;DHT22;2624;48.048;11.706;2024-03-25T02:34:14;2.70;99.90
5210;DHT22;2624;48.048;11.706;2024-03-25T02:39:17;2.80;99.90
5210;DHT22;2624;48.048;11.706;2024-03-25T02:44:20;2.80;99.90
5210;DHT22;2624;48.048;11.706;2024-03-25T02:49:23;2.80;99.90
5210;DHT22;2624;48.048;11.706;2024-03-25T02:54:24;2.90;99.90
5210;DHT22;2624;48.048;11.706;2024-03-25T02:59:28;2.80;99.90
5210;DHT22;2624;48.048;11.706;2024-03-25T03:04:30;2.90;99.90
5210;DHT22;2624;48.048;11.706;2024-03-25T03:09:32;2.90;99.90
5210;DHT22;2624;48.048;11.706;2024-03-25T03:14:35;2.80;99.90
5210;DHT22;2624;48.048;11.706;2024-03-25T03:19:37;2.80;99.90
5210;DHT22;2624;48.048;11.706;2024-03-25T03:24:39;2.90;99.90
5210;DHT22;2624;48.048;11.706;2024-03-25T03:29:42;2.90;99.90
5210;DHT22;2624;48.048;11.706;2024-03-25T03:34:44;2.80;99.90
5210;DHT22;2624;48.048;11.706;2024-03-25T03:39:46;2.80;99.90
5210;DHT22;2624;48.048;11.706;2024-03-25T03:44:49;2.70;99.90
5210;DHT22;2624;48.048;11.706;2024-03-25T03:49:51;2.90;99.90
5210;DHT22;2624;48.048;11.706;2024-03-25T03:54:53;2.80;99.90
5210;DHT22;2624;48.048;11.706;2024-03-25T03:59:56;2.70;99.90
5210;DHT22;2624;48.048;11.706;2024-03-25T04:04:58;2.80;99.90
5210;DHT22;2624;48.048;11.706;2024-03-25T04:10:01;2.70;99.90
5210;DHT22;2624;48.048;11.706;2024-03-25T04:15:06;2.70;99.90
5210;DHT22;2624;48.048;11.706;2024-03-25T04:20:09;2.80;99.90
5210;DHT22;2624;48.048;11.706;2024-03-25T04:25:11;2.60;99.90
5210;DHT22;2624;48.048;11.706;2024-03-25T04:30:17;2.30;99.90
5210;DHT22;2624;48.048;11.706;2024-03-25T04:35:19;2.40;99.90
5210;DHT22;2624;48.048;11.706;2024-03-25T04:40:21;2.50;99.90
5210;DHT22;2624;48.048;11.706;2024-03-25T04:45:23;2.40;99.90
5210;DHT22;2624;48.048;11.706;2024-03-25T04:50:24;2.30;99.90
5210;DHT22;2624;48.048;11.706;2024-03-25T04:55:26;2.40;99.90
5210;DHT22;2624;48.048;11.706;2024-03-25T05:00:28;2.40;99.90
5210;DHT22;2624;48.048;11.706;2024-03-25T05:05:29;2.30;99.90
5210;DHT22;2624;48.048;11.706;2024-03-25T05:10:30;2.40;99.90
5210;DHT22;2624;48.048;11.706;2024-03-25T05:15:32;2.30;99.90
5210;DHT22;2624;48.048;11.706;2024-03-25T05:20:33;2.30;99.90
5210;DHT22;2624;48.048;11.706;2024-03-25T05:25:34;2.40;99.90
5210;DHT22;2624;48.048;11.706;2024-03-25T05:30:37;2.40;99.90
5210;DHT22;2624;48.048;11.706;2024-03-25T05:35:38;2.20;99.90
5210;DHT22;2624;48.048;11.706;2024-03-25T05:40:39;2.20;99.90
5210;DHT22;2624;48.048;11.706;2024-03-25T05:45:41;2.20;99.90
5210;DHT22;2624;48.048;11.706;2024-03-25T05:51:00;2.30;99.90
5210;DHT22;2624;48.048;11.706;2024-03-25T05:56:01;2.20;99.90
5210;DHT22;2624;48.048;11.706;2024-03-25T06:01:04;2.20;99.90
5210;DHT22;2624;48.048;11.706;2024-03-25T06:06:05;2.20;99.90
5210;DHT22;2624;48.048;11.706;2024-03-25T06:11:06;2.30;99.90
5210;DHT22;2624;48.048;11.706;2024-03-25T06:16:08;2.30;99.90
5210;DHT22;2624;48.048;11.706;2024-03-25T06:21:09;2.30;99.90
5210;DHT22;2624;48.048;11.706;2024-03-25T06:26:10;2.40;99.90
5210;DHT22;2624;48.048;11.706;2024-03-25T06:31:12;2.50;99.90
5210;DHT22;2624;48.048;11.706;2024-03-25T06:36:32;2.50;99.90
5210;DHT22;2624;48.048;11.706;2024-03-25T06:41:32;2.60;99.90
5210;DHT22;2624;48.048;11.706;2024-03-25T06:46:35;2.60;99.90
5210;DHT22;2624;48.048;11.706;2024-03-25T06:51:36;2.80;99.90
5210;DHT22;2624;48.048;11.706;2024-03-25T06:56:37;2.90;99.90
5210;DHT22;2624;48.048;11.706;2024-03-25T07:01:39;2.90;99.90
5210;DHT22;2624;48.048;11.706;2024-03-25T07:06:40;3.20;99.90
5210;DHT22;2624;48.048;11.706;2024-03-25T07:11:41;3.50;99.90
5210;DHT22;2624;48.048;11.706;2024-03-25T07:16:43;3.30;99.90
5210;DHT22;2624;48.048;11.706;2024-03-25T07:21:44;3.40;99.90
5210;DHT22;2624;48.048;11.706;2024-03-25T07:26:45;3.40;99.90
5210;DHT22;2624;48.048;11.706;2024-03-25T07:31:47;3.70;99.90
5210;DHT22;2624;48.048;11.706;2024-03-25T07:36:48;3.80;99.90
5210;DHT22;2624;48.048;11.706;2024-03-25T07:41:49;3.80;99.90
5210;DHT22;2624;48.048;11.706;2024-03-25T07:46:52;4.10;99.90
5210;DHT22;2624;48.048;11.706;2024-03-25T07:51:52;4.40;99.90
5210;DHT22;2624;48.048;11.706;2024-03-25T07:56:53;4.10;99.90
5210;DHT22;2624;48.048;11.706;2024-03-25T08:01:56;4.10;99.90
5210;DHT22;2624;48.048;11.706;2024-03-25T08:06:57;4.10;99.90
5210;DHT22;2624;48.048;11.706;2024-03-25T08:11:58;4.30;99.90
5210;DHT22;2624;48.048;11.706;2024-03-25T08:17:00;4.70;99.90
5210;DHT22;2624;48.048;11.706;2024-03-25T08:22:01;4.20;99.90
5210;DHT22;2624;48.048;11.706;2024-03-25T08:27:02;4.40;99.90
5210;DHT22;2624;48.048;11.706;2024-03-25T08:32:05;4.50;99.90
5210;DHT22;2624;48.048;11.706;2024-03-25T08:37:06;4.40;99.90
5210;DHT22;2624;48.048;11.706;2024-03-25T08:42:07;4.60;99.90
5210;DHT22;2624;48.048;11.706;2024-03-25T08:47:09;5.10;99.90
5210;DHT22;2624;48.048;11.706;2024-03-25T08:52:10;5.10;99.90
5210;DHT22;2624;48.048;11.706;2024-03-25T08:57:11;5.40;99.90
5210;DHT22;2624;48.048;11.706;2024-03-25T09:02:13;5.30;99.90
5210;DHT22;2624;48.048;11.706;2024-03-25T09:07:15;6.20;99.90
5210;DHT22;2624;48.048;11.706;2024-03-25T09:12:16;5.80;99.90
5210;DHT22;2624;48.048;11.706;2024-03-25T09:17:18;5.90;99.90
5210;DHT22;2624;48.048;11.706;2024-03-25T09:22:19;5.80;99.90
5210;DHT22;2624;48.048;11.706;2024-03-25T09:27:20;5.70;99.90
5210;DHT22;2624;48.048;11.706;2024-03-25T09:32:22;5.60;99.90
5210;DHT22;2624;48.048;11.706;2024-03-25T09:37:23;6.10;99.90
5210;DHT22;2624;48.048;11.706;2024-03-25T09:42:26;5.60;99.90
5210;DHT22;2624;48.048;11.706;2024-03-25T09:47:29;5.90;99.90
5210;DHT22;2624;48.048;11.706;2024-03-25T09:52:30;6.60;99.90
5210;DHT22;2624;48.048;11.706;2024-03-25T09:57:31;6.30;99.90
5210;DHT22;2624;48.048;11.706;2024-03-25T10:02:34;6.50;99.90
5210;DHT22;2624;48.048;11.706;2024-03-25T10:07:36;6.60;99.90
5210;DHT22;2624;48.048;11.706;2024-03-25T10:12:37;7.20;99.90
5210;DHT22;2624;48.048;11.706;2024-03-25T10:17:40;6.70;99.90
5210;DHT22;2624;48.048;11.706;2024-03-25T10:22:41;6.40;99.90
5210;DHT22;2624;48.048;11.706;2024-03-25T10:27:53;6.20;99.90
5210;DHT22;2624;48.048;11.706;2024-03-25T10:33:02;6.30;99.90
5210;DHT22;2624;48.048;11.706;2024-03-25T10:38:04;6.40;99.90
5210;DHT22;2624;48.048;11.706;2024-03-25T10:43:06;6.80;99.90
5210;DHT22;2624;48.048;11.706;2024-03-25T10:48:15;6.90;99.90
5210;DHT22;2624;48.048;11.706;2024-03-25T10:53:18;6.70;99.90
5210;DHT22;2624;48.048;11.706;2024-03-25T10:58:21;7.00;99.90
5210;DHT22;2624;48.048;11.706;2024-03-25T11:03:24;7.10;99.90
5210;DHT22;2624;48.048;11.706;2024-03-25T11:08:30;6.90;99.90
5210;DHT22;2624;48.048;11.706;2024-03-25T11:13:32;7.20;99.90
5210;DHT22;2624;48.048;11.706;2024-03-25T11:18:34;7.50;99.90
5210;DHT22;2624;48.048;11.706;2024-03-25T11:23:37;9.40;92.40
5210;DHT22;2624;48.048;11.706;2024-03-25T11:28:38;9.40;93.40
5210;DHT22;2624;48.048;11.706;2024-03-25T11:33:41;9.30;96.70
5210;DHT22;2624;48.048;11.706;2024-03-25T11:38:42;9.90;98.50
5210;DHT22;2624;48.048;11.706;2024-03-25T11:43:43;9.30;99.90
5210;DHT22;2624;48.048;11.706;2024-03-25T11:48:45;9.50;99.90
5210;DHT22;2624;48.048;11.706;2024-03-25T11:53:46;8.80;99.90
5210;DHT22;2624;48.048;11.706;2024-03-25T11:58:47;9.20;99.90
5210;DHT22;2624;48.048;11.706;2024-03-25T12:03:50;10.10;96.20
5210;DHT22;2624;48.048;11.706;2024-03-25T12:08:51;10.90;93.80
5210;DHT22;2624;48.048;11.706;2024-03-25T12:14:06;10.40;98.10
5210;DHT22;2624;48.048;11.706;2024-03-25T12:19:09;11.20;87.80
5210;DHT22;2624;48.048;11.706;2024-03-25T12:24:11;11.40;77.50
5210;DHT22;2624;48.048;11.706;2024-03-25T12:29:13;11.80;84.40
5210;DHT22;2624;48.048;11.706;2024-03-25T12:34:16;10.90;95.00
5210;DHT22;2624;48.048;11.706;2024-03-25T12:39:18;11.20;92.60
5210;DHT22;2624;48.048;11.706;2024-03-25T12:44:19;10.80;95.40
5210;DHT22;2624;48.048;11.706;2024-03-25T12:49:22;10.90;89.30
5210;DHT22;2624;48.048;11.706;2024-03-25T12:54:22;11.30;89.20
5210;DHT22;2624;48.048;11.706;2024-03-25T12:59:23;11.80;73.20
5210;DHT22;2624;48.048;11.706;2024-03-25T13:04:26;10.80;91.40
5210;DHT22;2624;48.048;11.706;2024-03-25T13:09:27;11.30;92.10
5210;DHT22;2624;48.048;11.706;2024-03-25T13:14:28;11.40;77.90
5210;DHT22;2624;48.048;11.706;2024-03-25T13:19:30;12.10;71.00
5210;DHT22;2624;48.048;11.706;2024-03-25T13:24:31;12.20;68.90
5210;DHT22;2624;48.048;11.706;2024-03-25T13:29:32;12.10;69.10
5210;DHT22;2624;48.048;11.706;2024-03-25T13:34:34;11.70;87.00
5210;DHT22;2624;48.048;11.706;2024-03-25T13:39:35;12.10;69.80
5210;DHT22;2624;48.048;11.706;2024-03-25T13:44:36;12.20;72.50
5210;DHT22;2624;48.048;11.706;2024-03-25T13:49:39;12.20;90.60
5210;DHT22;2624;48.048;11.706;2024-03-25T13:54:40;11.70;92.60
5210;DHT22;2624;48.048;11.706;2024-03-25T13:59:41;12.00;91.10
5210;DHT22;2624;48.048;11.706;2024-03-25T14:04:43;11.40;92.70
5210;DHT22;2624;48.048;11.706;2024-03-25T14:09:44;11.90;89.40
5210;DHT22;2624;48.048;11.706;2024-03-25T14:14:45;11.70;91.40
5210;DHT22;2624;48.048;11.706;2024-03-25T14:19:47;11.20;92.90
5210;DHT22;2624;48.048;11.706;2024-03-25T14:24:48;11.80;87.20
5210;DHT22;2624;48.048;11.706;2024-03-25T14:29:49;11.70;90.60
5210;DHT22;2624;48.048;11.706;2024-03-25T14:34:52;11.70;83.00
5210;DHT22;2624;48.048;11.706;2024-03-25T14:39:53;11.60;78.40
5210;DHT22;2624;48.048;11.706;2024-03-25T14:44:54;11.50;92.00
5210;DHT22;2624;48.048;11.706;2024-03-25T14:49:56;11.40;92.40
5210;DHT22;2624;48.048;11.706;2024-03-25T14:54:57;11.30;92.30
5210;DHT22;2624;48.048;11.706;2024-03-25T14:59:58;11.30;82.50
5210;DHT22;2624;48.048;11.706;2024-03-25T15:05:01;11.60;77.10
5210;DHT22;2624;48.048;11.706;2024-03-25T15:10:02;11.40;82.50
5210;DHT22;2624;48.048;11.706;2024-03-25T15:15:03;11.40;83.80
5210;DHT22;2624;48.048;11.706;2024-03-25T15:20:07;11.40;81.30
5210;DHT22;2624;48.048;11.706;2024-03-25T15:25:08;11.30;90.00
5210;DHT22;2624;48.048;11.706;2024-03-25T15:30:10;11.20;83.00
5210;DHT22;2624;48.048;11.706;2024-03-25T15:35:12;11.10;82.60
5210;DHT22;2624;48.048;11.706;2024-03-25T15:40:13;11.00;86.00
5210;DHT22;2624;48.048;11.706;2024-03-25T15:45:15;10.90;90.60
5210;DHT22;2624;48.048;11.706;2024-03-25T15:50:17;10.80;82.50
5210;DHT22;2624;48.048;11.706;2024-03-25T15:55:18;10.90;91.10
5210;DHT22;2624;48.048;11.706;2024-03-25T16:00:20;10.80;87.30
5210;DHT22;2624;48.048;11.706;2024-03-25T16:05:22;10.80;90.30
5210;DHT22;2624;48.048;11.706;2024-03-25T16:10:23;10.70;89.00
5210;DHT22;2624;48.048;11.706;2024-03-25T16:15:25;10.60;88.40
5210;DHT22;2624;48.048;11.706;2024-03-25T16:20:31;10.60;90.20
5210;DHT22;2624;48.048;11.706;2024-03-25T16:25:32;10.40;87.90
5210;DHT22;2624;48.048;11.706;2024-03-25T16:30:33;10.40;89.80
5210;DHT22;2624;48.048;11.706;2024-03-25T16:35:35;10.40;91.60
5210;DHT22;2624;48.048;11.706;2024-03-25T16:40:36;10.30;90.60
5210;DHT22;2624;48.048;11.706;2024-03-25T16:45:37;10.00;88.50
5210;DHT22;2624;48.048;11.706;2024-03-25T16:50:39;10.00;92.00
5210;DHT22;2624;48.048;11.706;2024-03-25T16:55:40;9.90;90.40
5210;DHT22;2624;48.048;11.706;2024-03-25T17:00:41;9.90;93.20
5210;DHT22;2624;48.048;11.706;2024-03-25T17:05:44;9.90;93.50
5210;DHT22;2624;48.048;11.706;2024-03-25T17:10:45;9.80;92.90
5210;DHT22;2624;48.048;11.706;2024-03-25T17:15:46;9.60;93.40
5210;DHT22;2624;48.048;11.706;2024-03-25T17:20:49;9.60;92.70
5210;DHT22;2624;48.048;11.706;2024-03-25T17:25:50;9.60;92.20
5210;DHT22;2624;48.048;11.706;2024-03-25T17:30:51;9.50;94.70
5210;DHT22;2624;48.048;11.706;2024-03-25T17:35:53;9.40;93.00
5210;DHT22;2624;48.048;11.706;2024-03-25T17:40:54;9.20;93.40
5210;DHT22;2624;48.048;11.706;2024-03-25T17:45:55;9.10;92.90
5210;DHT22;2624;48.048;11.706;2024-03-25T17:50:58;8.90;93.70
5210;DHT22;2624;48.048;11.706;2024-03-25T17:55:59;8.90;95.00
5210;DHT22;2624;48.048;11.706;2024-03-25T18:01:00;8.80;94.30
5210;DHT22;2624;48.048;11.706;2024-03-25T18:06:03;8.60;94.50
5210;DHT22;2624;48.048;11.706;2024-03-25T18:11:04;8.80;95.80
5210;DHT22;2624;48.048;11.706;2024-03-25T18:16:05;9.10;95.60
5210;DHT22;2624;48.048;11.706;2024-03-25T18:21:08;9.10;95.90
5210;DHT22;2624;48.048;11.706;2024-03-25T18:26:09;8.90;96.00
5210;DHT22;2624;48.048;11.706;2024-03-25T18:31:10;8.90;96.00
5210;DHT22;2624;48.048;11.706;2024-03-25T18:36:14;8.70;96.30
5210;DHT22;2624;48.048;11.706;2024-03-25T18:41:15;8.80;95.20
5210;DHT22;2624;48.048;11.706;2024-03-25T18:46:16;8.50;96.40
5210;DHT22;2624;48.048;11.706;2024-03-25T18:51:18;8.40;96.30
5210;DHT22;2624;48.048;11.706;2024-03-25T18:56:19;8.20;96.30
5210;DHT22;2624;48.048;11.706;2024-03-25T19:01:20;8.00;97.10
5210;DHT22;2624;48.048;11.706;2024-03-25T19:06:22;8.10;96.20
5210;DHT22;2624;48.048;11.706;2024-03-25T19:11:23;7.90;96.00
5210;DHT22;2624;48.048;11.706;2024-03-25T19:16:24;7.70;96.80
5210;DHT22;2624;48.048;11.706;2024-03-25T19:21:27;7.50;95.30
5210;DHT22;2624;48.048;11.706;2024-03-25T19:26:27;7.50;96.60
5210;DHT22;2624;48.048;11.706;2024-03-25T19:31:28;8.00;97.30
5210;DHT22;2624;48.048;11.706;2024-03-25T19:36:31;7.90;97.50
5210;DHT22;2624;48.048;11.706;2024-03-25T19:41:32;7.70;96.60
5210;DHT22;2624;48.048;11.706;2024-03-25T19:46:33;7.80;97.40
5210;DHT22;2624;48.048;11.706;2024-03-25T19:51:35;7.80;96.50
5210;DHT22;2624;48.048;11.706;2024-03-25T19:56:36;7.40;97.60
5210;DHT22;2624;48.048;11.706;2024-03-25T20:01:37;7.50;96.70
5210;DHT22;2624;48.048;11.706;2024-03-25T20:06:39;7.40;97.80
5210;DHT22;2624;48.048;11.706;2024-03-25T20:11:40;7.50;97.70
5210;DHT22;2624;48.048;11.706;2024-03-25T20:16:41;7.20;96.50
5210;DHT22;2624;48.048;11.706;2024-03-25T20:21:43;7.30;98.20
5210;DHT22;2624;48.048;11.706;2024-03-25T20:26:44;7.20;96.20
5210;DHT22;2624;48.048;11.706;2024-03-25T20:31:45;6.90;98.30
5210;DHT22;2624;48.048;11.706;2024-03-25T20:36:47;6.50;97.80
5210;DHT22;2624;48.048;11.706;2024-03-25T20:41:48;6.50;96.80
5210;DHT22;2624;48.048;11.706;2024-03-25T20:46:49;6.30;97.40
5210;DHT22;2624;48.048;11.706;2024-03-25T20:51:51;6.10;98.60
5210;DHT22;2624;48.048;11.706;2024-03-25T20:56:52;6.10;98.20
5210;DHT22;2624;48.048;11.706;2024-03-25T21:01:53;6.00;97.60
5210;DHT22;2624;48.048;11.706;2024-03-25T21:06:56;5.70;98.50
5210;DHT22;2624;48.048;11.706;2024-03-25T21:11:57;5.60;98.20
5210;DHT22;2624;48.048;11.706;2024-03-25T21:16:58;5.40;98.60
5210;DHT22;2624;48.048;11.706;2024-03-25T21:22:00;5.30;99.20
5210;DHT22;2624;48.048;11.706;2024-03-25T21:27:01;5.50;99.30
5210;DHT22;2624;48.048;11.706;2024-03-25T21:32:02;5.30;99.20
5210;DHT22;2624;48.048;11.706;2024-03-25T21:37:04;5.40;99.30
5210;DHT22;2624;48.048;11.706;2024-03-25T21:42:06;5.10;99.90
5210;DHT22;2624;48.048;11.706;2024-03-25T21:47:07;5.20;99.50
5210;DHT22;2624;48.048;11.706;2024-03-25T21:52:09;5.30;99.50
5210;DHT22;2624;48.048;11.706;2024-03-25T21:57:10;4.90;99.90
5210;DHT22;2624;48.048;11.706;2024-03-25T22:02:11;4.80;99.90
5210;DHT22;2624;48.048;11.706;2024-03-25T22:07:13;4.70;99.90
5210;DHT22;2624;48.048;11.706;2024-03-25T22:12:14;4.60;99.90
5210;DHT22;2624;48.048;11.706;2024-03-25T22:17:15;4.60;99.90
5210;DHT22;2624;48.048;11.706;2024-03-25T22:22:17;4.50;99.90
5210;DHT22;2624;48.048;11.706;2024-03-25T22:27:18;4.60;99.90
5210;DHT22;2624;48.048;11.706;2024-03-25T22:32:19;4.40;99.90
5210;DHT22;2624;48.048;11.706;2024-03-25T22:37:22;4.60;99.90
5210;DHT22;2624;48.048;11.706;2024-03-25T22:42:23;4.30;99.90
5210;DHT22;2624;48.048;11.706;2024-03-25T22:47:23;4.20;99.90
5210;DHT22;2624;48.048;11.706;2024-03-25T22:52:26;4.20;99.90
5210;DHT22;2624;48.048;11.706;2024-03-25T22:57:27;4.00;99.90
5210;DHT22;2624;48.048;11.706;2024-03-25T23:02:28;4.00;99.90
5210;DHT22;2624;48.048;11.706;2024-03-25T23:07:30;3.90;99.90
5210;DHT22;2624;48.048;11.706;2024-03-25T23:12:31;4.10;99.90
5210;DHT22;2624;48.048;11.706;2024-03-25T23:17:32;4.30;99.90
5210;DHT22;2624;48.048;11.706;2024-03-25T23:22:34;3.80;99.90
5210;DHT22;2624;48.048;11.706;2024-03-25T23:27:35;3.80;99.90
5210;DHT22;2624;48.048;11.706;2024-03-25T23:32:36;3.80;99.90
5210;DHT22;2624;48.048;11.706;2024-03-25T23:37:38;3.70;99.90
5210;DHT22;2624;48.048;11.706;2024-03-25T23:42:41;3.80;99.90
5210;DHT22;2624;48.048;11.706;2024-03-25T23:47:42;3.80;99.90
5210;DHT22;2624;48.048;11.706;2024-03-25T23:52:45;4.00;99.90
5210;DHT22;2624;48.048;11.706;2024-03-25T23:57:45;4.50;99.90
